ガーンジー島 の空港の天気 - METARとTAF

ガーンジー空港 ( EGJB / GCI ) - ガーンジー島 ガーンジー島
飛行場実況気象(Metar)
観測時間08/13 05:50 BST (08/13 04:50 UTC)
風向・風速北北東 2m/s
視程900m
天気現象散在した霧
全天の4割程度の雲 雲底高度 不明
気温18℃
湿度100%
気圧1012hPa
METAREGJB 130450Z 02004KT 0900 R27/0800 BCFG SCT000 18/18 Q1012
過去の天気等 Google飛行場航空写真 Wunderground天気予報

過去48時間のMETAR

飛行場予報(TAF)
発表時間: 8/13 03:03 BST (8/13 02:03 UTC)
予報対象時間: 13日4時 BST ~ 13日13時 BST
風向・風速不定 2m/s
視程10km以上
少しの雲 雲底高度 1220m
13日4時 BST ~ 13日13時 BST に一時的に
視程3000m
天気現象もや
全天の8割程度の雲 雲底高度 120m
13日4時 BST ~ 13日9時 BST に 確率 30% で一時的に
視程200m
天気現象
全天の8割程度の雲 雲底高度 0m
TAF EGJB 130203Z 1303/1312 VRB03KT 9999 FEW040
TEMPO 1303/1312 3000 BR BKN004
PROB30 TEMPO 1303/1308 0200 FG BKN000